Time;durP1;ratioP1;P1;durP2;ratioP2;P2;SDS_P1;SDS_P2;PMS_P1;PMS_P2;Temp;Humidity;BMP_temperature;BMP_pressure;BME280_temperature;BME280_humidity;BME280_pressure;Samples;Min_cycle;Max_cycle;Signal;HPM_P1;HPM_P2
2023/06/06 00:00:30;;;;;;;10.30;7.65;;;;;;;15.50;97.23;101945.63;5190389;28;20112;-71
2023/06/06 00:03:01;;;;;;;11.93;8.20;;;;;;;15.42;97.93;101950.75;5189487;28;20443;-70
2023/06/06 00:05:33;;;;;;;9.93;7.95;;;;;;;15.35;97.58;101940.88;5190774;28;20100;-71
2023/06/06 00:08:06;;;;;;;10.93;8.32;;;;;;;15.37;97.68;101946.84;5188324;28;20101;-70
2023/06/06 00:10:37;;;;;;;11.73;7.90;;;;;;;15.36;98.13;101946.00;5192548;28;20042;-71
2023/06/06 00:13:12;;;;;;;10.57;8.02;;;;;;;15.31;99.13;101940.31;5190540;28;20460;-70
2023/06/06 00:15:44;;;;;;;9.35;7.82;;;;;;;15.25;98.39;101941.66;5190366;28;20041;-70
2023/06/06 00:18:16;;;;;;;9.68;8.27;;;;;;;15.25;99.10;101936.38;5190572;28;21409;-70
2023/06/06 00:20:48;;;;;;;9.88;8.07;;;;;;;15.21;99.35;101949.97;5192134;28;20518;-70
2023/06/06 00:23:20;;;;;;;11.02;7.93;;;;;;;15.24;99.19;101942.63;5190733;28;20026;-71
2023/06/06 00:25:52;;;;;;;12.70;7.97;;;;;;;15.21;100.00;101939.44;5191071;28;20047;-70
2023/06/06 00:28:24;;;;;;;11.95;8.32;;;;;;;15.15;99.12;101943.41;5192653;28;20041;-70
2023/06/06 00:30:55;;;;;;;11.95;8.18;;;;;;;15.19;99.05;101947.50;5188843;28;20022;-70
2023/06/06 00:33:26;;;;;;;9.40;7.75;;;;;;;15.11;98.71;101942.00;5191096;28;20109;-70
2023/06/06 00:35:58;;;;;;;10.40;7.72;;;;;;;15.10;98.43;101940.34;5190223;28;20057;-71
2023/06/06 00:38:29;;;;;;;9.88;7.82;;;;;;;15.07;99.05;101944.09;5172761;28;20030;-71
2023/06/06 00:41:00;;;;;;;9.68;7.88;;;;;;;15.04;100.00;101946.19;5191447;28;20026;-71
2023/06/06 00:43:31;;;;;;;11.38;9.02;;;;;;;14.96;100.00;101943.34;5174292;28;20030;-71
2023/06/06 00:46:03;;;;;;;11.88;8.88;;;;;;;14.91;100.00;101942.91;5191309;28;20200;-71
2023/06/06 00:48:34;;;;;;;10.27;8.23;;;;;;;14.89;100.00;101944.81;5187718;28;20100;-71
2023/06/06 00:51:08;;;;;;;11.05;8.48;;;;;;;14.78;100.00;101941.31;5191456;28;20322;-71
2023/06/06 00:53:39;;;;;;;11.43;8.52;;;;;;;14.71;100.00;101942.81;5189022;28;20069;-71
2023/06/06 00:56:13;;;;;;;10.90;8.80;;;;;;;14.73;100.00;101946.13;5189810;28;20117;-70
2023/06/06 00:58:44;;;;;;;10.57;7.65;;;;;;;14.62;100.00;101938.28;5189791;28;20031;-71
2023/06/06 01:01:16;;;;;;;11.07;8.55;;;;;;;14.61;100.00;101936.63;5190975;28;20034;-71
2023/06/06 01:03:47;;;;;;;11.50;8.82;;;;;;;14.57;100.00;101937.84;5188077;28;20476;-71
2023/06/06 01:06:22;;;;;;;12.73;8.48;;;;;;;14.47;100.00;101945.69;5189347;28;20222;-71
2023/06/06 01:08:53;;;;;;;10.23;8.80;;;;;;;14.53;100.00;101942.56;5191482;28;20022;-70
2023/06/06 01:11:33;;;;;;;12.48;8.93;;;;;;;14.53;100.00;101944.34;5189427;28;20030;-70
2023/06/06 01:14:09;;;;;;;11.23;8.90;;;;;;;14.48;100.00;101947.34;5190127;28;20030;-71
2023/06/06 01:16:41;;;;;;;11.27;9.18;;;;;;;14.40;100.00;101944.53;5187985;28;20065;-71
2023/06/06 01:19:27;;;;;;;12.90;8.30;;;;;;;14.38;100.00;101948.25;5190213;28;20129;-70
2023/06/06 01:21:58;;;;;;;12.40;8.40;;;;;;;14.32;100.00;101945.16;5188232;28;20026;-70
2023/06/06 01:24:30;;;;;;;11.35;8.73;;;;;;;14.22;100.00;101931.06;5190325;28;20522;-71
2023/06/06 01:27:03;;;;;;;12.88;8.57;;;;;;;14.23;100.00;101945.91;5189289;28;20156;-70
2023/06/06 01:29:35;;;;;;;;;;;;;;;14.97;97.10;101937.13;5190250;28;20026;-71
2023/06/06 01:32:30;;;;;;;10.30;8.63;;;;;;;14.54;100.00;101940.75;5189093;28;20346;-70
2023/06/06 01:35:14;;;;;;;12.48;8.88;;;;;;;14.37;100.00;101934.22;5187903;28;20084;-71
2023/06/06 01:38:22;;;;;;;10.75;8.40;;;;;;;14.40;100.00;101941.06;5189650;28;20026;-71
2023/06/06 01:40:57;;;;;;;11.57;8.18;;;;;;;14.12;100.00;101952.06;5190003;28;20040;-71
2023/06/06 01:43:31;;;;;;;9.50;7.90;;;;;;;14.04;100.00;101943.97;5169588;28;20111;-70
2023/06/06 01:46:04;;;;;;;10.20;7.97;;;;;;;13.92;100.00;101949.41;5190900;28;20492;-69
2023/06/06 01:48:35;;;;;;;12.10;8.13;;;;;;;13.96;100.00;101945.56;5190271;28;20056;-70
2023/06/06 01:51:07;;;;;;;10.77;8.65;;;;;;;13.87;100.00;101940.09;5185174;28;20034;-69
2023/06/06 01:53:39;;;;;;;11.93;8.48;;;;;;;13.89;100.00;101939.94;5189559;28;20070;-70
2023/06/06 01:56:13;;;;;;;10.65;8.43;;;;;;;13.83;100.00;101941.28;5189859;28;20101;-69
2023/06/06 01:58:45;;;;;;;12.05;9.00;;;;;;;13.88;100.00;101943.53;5190465;28;20046;-70
2023/06/06 02:01:16;;;;;;;11.93;8.60;;;;;;;13.78;100.00;101940.81;5189371;28;20031;-69
2023/06/06 02:03:47;;;;;;;9.50;8.20;;;;;;;13.81;100.00;101950.28;5190695;28;20382;-70
2023/06/06 02:06:20;;;;;;;12.07;8.93;;;;;;;13.74;100.00;101944.66;5191339;28;20034;-70
2023/06/06 02:08:51;;;;;;;11.45;8.48;;;;;;;13.74;100.00;101944.66;5187955;28;20535;-69
2023/06/06 02:11:23;;;;;;;12.15;8.27;;;;;;;13.62;100.00;101943.84;5188873;28;20053;-69
2023/06/06 02:13:57;;;;;;;11.88;8.48;;;;;;;13.60;100.00;101939.69;5190575;28;20280;-69
2023/06/06 02:16:29;;;;;;;10.20;8.70;;;;;;;13.53;100.00;101941.13;5187517;28;20577;-70
2023/06/06 02:19:01;;;;;;;10.00;8.52;;;;;;;13.61;100.00;101938.72;5189262;28;20054;-69
2023/06/06 02:21:32;;;;;;;11.68;8.77;;;;;;;13.59;100.00;101944.09;5190903;28;20030;-69
2023/06/06 02:24:04;;;;;;;10.43;8.27;;;;;;;13.57;100.00;101940.75;5188842;28;20026;-69
2023/06/06 02:26:36;;;;;;;10.40;8.38;;;;;;;13.47;100.00;101942.44;5187968;28;20129;-69
2023/06/06 02:29:07;;;;;;;11.30;9.00;;;;;;;13.52;100.00;101931.53;5188215;28;20400;-69
2023/06/06 02:31:39;;;;;;;12.48;8.55;;;;;;;13.48;100.00;101944.09;5190056;28;20030;-69
2023/06/06 02:34:10;;;;;;;13.50;8.77;;;;;;;13.45;100.00;101938.25;5193556;28;20787;-69
2023/06/06 02:36:41;;;;;;;10.57;8.27;;;;;;;13.51;100.00;101935.97;5194283;28;20034;-70
2023/06/06 02:39:13;;;;;;;11.25;8.85;;;;;;;13.44;100.00;101944.47;5193905;28;20018;-69
2023/06/06 02:41:44;;;;;;;12.88;9.35;;;;;;;13.36;100.00;101939.81;5192223;28;20041;-69
2023/06/06 02:44:15;;;;;;;10.30;8.07;;;;;;;13.34;100.00;101936.50;5191802;28;20546;-69
2023/06/06 02:46:47;;;;;;;10.75;8.63;;;;;;;13.42;100.00;101941.97;5194355;28;20509;-69
2023/06/06 02:49:18;;;;;;;12.00;9.32;;;;;;;13.41;100.00;101937.69;5194725;28;20068;-69
2023/06/06 02:51:49;;;;;;;11.10;8.75;;;;;;;13.29;100.00;101936.81;5191179;28;20537;-69
2023/06/06 02:54:20;;;;;;;11.70;8.25;;;;;;;13.30;100.00;101946.41;5194320;28;20030;-69
2023/06/06 02:56:52;;;;;;;10.75;8.13;;;;;;;13.23;100.00;101934.69;5189980;28;20484;-69
2023/06/06 02:59:23;;;;;;;10.57;8.40;;;;;;;13.22;100.00;101940.03;5191222;28;20026;-69
2023/06/06 03:01:54;;;;;;;11.85;8.20;;;;;;;13.22;100.00;101942.66;5191392;28;20038;-69
2023/06/06 03:04:25;;;;;;;9.70;8.25;;;;;;;13.19;100.00;101941.13;5193565;28;20358;-69
2023/06/06 03:06:57;;;;;;;10.57;8.50;;;;;;;13.14;100.00;101941.50;5193528;28;20026;-69
2023/06/06 03:09:28;;;;;;;10.95;8.30;;;;;;;13.12;100.00;101951.28;5191758;28;20969;-69
2023/06/06 03:11:59;;;;;;;13.18;8.23;;;;;;;13.05;100.00;101946.63;5191710;28;20053;-69
2023/06/06 03:14:31;;;;;;;10.05;8.23;;;;;;;12.99;100.00;101947.09;5189052;28;20030;-69
2023/06/06 03:17:02;;;;;;;10.13;7.93;;;;;;;13.00;100.00;101948.78;5191590;28;20038;-69
2023/06/06 03:19:33;;;;;;;11.23;8.55;;;;;;;12.96;100.00;101949.97;5191149;28;20136;-69
2023/06/06 03:22:05;;;;;;;10.30;8.38;;;;;;;13.02;100.00;101944.22;5193380;28;20035;-69
2023/06/06 03:24:37;;;;;;;11.98;8.35;;;;;;;12.97;100.00;101943.75;5192574;28;20054;-69
2023/06/06 03:27:10;;;;;;;11.18;8.57;;;;;;;12.89;100.00;101944.34;5192280;28;21004;-69
2023/06/06 03:29:41;;;;;;;10.15;8.38;;;;;;;12.85;100.00;101943.75;5191488;28;20045;-69
2023/06/06 03:32:13;;;;;;;9.85;8.85;;;;;;;12.87;100.00;101943.63;5191507;28;20034;-69
2023/06/06 03:34:44;;;;;;;9.23;7.60;;;;;;;12.85;100.00;101942.91;5193394;28;20034;-69
2023/06/06 03:37:15;;;;;;;11.57;8.48;;;;;;;12.86;100.00;101947.22;5187904;28;20395;-69
2023/06/06 03:39:46;;;;;;;10.27;8.55;;;;;;;12.77;100.00;101950.56;5192220;28;20483;-69
2023/06/06 03:42:18;;;;;;;10.30;8.60;;;;;;;12.82;100.00;101948.41;5193161;28;20065;-69
2023/06/06 03:44:49;;;;;;;8.73;7.63;;;;;;;12.69;100.00;101935.38;5192982;28;20130;-69
2023/06/06 03:47:20;;;;;;;10.57;8.40;;;;;;;12.76;100.00;101951.50;5185717;28;20790;-69
2023/06/06 03:49:52;;;;;;;10.27;8.18;;;;;;;12.74;100.00;101946.34;5192334;28;20028;-70
2023/06/06 03:52:24;;;;;;;10.18;8.32;;;;;;;12.76;100.00;101951.50;5193272;28;20026;-69
2023/06/06 03:54:55;;;;;;;9.23;7.78;;;;;;;12.71;100.00;101946.59;5191390;28;20069;-69
2023/06/06 03:57:26;;;;;;;9.68;8.50;;;;;;;12.69;100.00;101945.03;5190353;28;20543;-69
2023/06/06 03:59:58;;;;;;;10.35;8.02;;;;;;;12.76;100.00;101944.44;5192147;28;20110;-69
2023/06/06 04:02:29;;;;;;;9.18;8.15;;;;;;;12.69;100.00;101955.53;5191772;28;20048;-69
2023/06/06 04:05:01;;;;;;;8.80;7.30;;;;;;;12.79;100.00;101951.25;5192883;28;20033;-69
2023/06/06 04:07:33;;;;;;;10.35;8.05;;;;;;;12.73;100.00;101952.59;5190546;28;20507;-69
2023/06/06 04:10:05;;;;;;;12.60;8.32;;;;;;;12.75;100.00;101955.09;5190511;28;20030;-69
2023/06/06 04:12:36;;;;;;;11.73;9.10;;;;;;;12.75;100.00;101953.28;5191153;28;20030;-69
2023/06/06 04:15:10;;;;;;;12.07;8.50;;;;;;;12.75;100.00;101945.41;5189435;28;20449;-69
2023/06/06 04:17:41;;;;;;;11.48;7.85;;;;;;;12.72;100.00;101950.88;5191087;28;20042;-69
2023/06/06 04:20:12;;;;;;;9.60;8.02;;;;;;;12.76;100.00;101954.13;5192103;28;20089;-69
2023/06/06 04:22:45;;;;;;;9.80;8.27;;;;;;;12.74;100.00;101956.88;5190948;28;20138;-69
2023/06/06 04:25:17;;;;;;;10.45;7.32;;;;;;;12.80;100.00;101960.81;5190658;28;20519;-69
2023/06/06 04:27:48;;;;;;;13.30;8.48;;;;;;;12.78;100.00;101952.22;5178457;28;20038;-69
2023/06/06 04:30:22;;;;;;;11.23;7.65;;;;;;;12.87;100.00;101954.13;5190861;28;20435;-69
2023/06/06 04:32:53;;;;;;;11.07;7.80;;;;;;;12.83;100.00;101956.16;5187932;28;20034;-69
2023/06/06 04:35:25;;;;;;;10.15;7.82;;;;;;;12.90;100.00;101951.28;5187698;28;20104;-69
2023/06/06 04:37:57;;;;;;;11.48;7.93;;;;;;;12.96;100.00;101960.50;5188096;28;20118;-69
2023/06/06 04:40:32;;;;;;;11.55;8.15;;;;;;;13.05;100.00;101957.16;5191077;28;20026;-69
2023/06/06 04:43:04;;;;;;;10.82;8.68;;;;;;;12.95;100.00;101964.91;5189281;28;20118;-69
2023/06/06 04:45:36;;;;;;;11.82;7.63;;;;;;;13.01;100.00;101963.59;5190105;28;20132;-69
2023/06/06 04:48:07;;;;;;;12.07;8.07;;;;;;;13.08;100.00;101955.13;5187834;28;20189;-69
2023/06/06 04:50:39;;;;;;;9.48;7.70;;;;;;;13.02;100.00;101962.63;5191925;28;20422;-69
2023/06/06 04:53:10;;;;;;;11.70;8.05;;;;;;;13.12;100.00;101959.19;5190999;28;20034;-69
2023/06/06 04:55:41;;;;;;;11.13;8.18;;;;;;;13.11;100.00;101956.69;5191409;28;20069;-69
2023/06/06 04:58:14;;;;;;;9.48;7.78;;;;;;;13.18;100.00;101944.69;5189782;28;20037;-69
2023/06/06 05:00:46;;;;;;;11.83;8.17;;;;;;;13.23;100.00;101954.88;5188202;28;20432;-69
2023/06/06 05:03:19;;;;;;;10.98;7.95;;;;;;;13.26;100.00;101958.16;5190030;28;20714;-69
2023/06/06 05:05:51;;;;;;;;;;;;;;;13.90;100.00;101954.78;5188189;28;20405;-69
2023/06/06 05:08:22;;;;;;;9.45;8.30;;;;;;;13.31;100.00;101953.34;5186615;28;19917;-69
2023/06/06 05:10:53;;;;;;;12.25;8.13;;;;;;;13.37;100.00;101954.66;5191058;28;20162;-70
2023/06/06 05:13:25;;;;;;;9.73;7.70;;;;;;;13.43;100.00;101959.44;5191522;28;20109;-69
2023/06/06 05:15:56;;;;;;;10.23;8.05;;;;;;;13.49;100.00;101950.22;5186987;28;20109;-69
2023/06/06 05:18:30;;;;;;;11.30;7.80;;;;;;;13.53;100.00;101960.38;5191759;28;20022;-68
2023/06/06 05:21:03;;;;;;;10.27;8.30;;;;;;;13.48;100.00;101962.53;5189408;28;20022;-69
2023/06/06 05:23:34;;;;;;;;;;;;;;;14.18;100.00;101966.56;5191740;28;20399;-69
2023/06/06 05:26:06;;;;;;;11.60;8.40;;;;;;;13.66;100.00;101972.56;5190586;28;19921;-69
2023/06/06 05:28:38;;;;;;;10.70;8.30;;;;;;;13.70;100.00;101958.19;5189152;28;20042;-69
2023/06/06 05:31:09;;;;;;;11.13;7.83;;;;;;;13.75;100.00;101964.78;5191651;28;20052;-68
2023/06/06 05:33:42;;;;;;;12.63;8.82;;;;;;;13.83;100.00;101962.38;5187540;28;20151;-71
2023/06/06 05:36:13;;;;;;;10.60;8.15;;;;;;;13.80;100.00;101967.03;5190726;28;20037;-70
2023/06/06 05:38:45;;;;;;;10.63;8.00;;;;;;;13.85;100.00;101965.69;5189764;28;20026;-71
2023/06/06 05:41:17;;;;;;;11.27;8.18;;;;;;;13.94;100.00;101964.13;5188884;28;20088;-69
2023/06/06 05:43:50;;;;;;;9.25;7.43;;;;;;;13.95;100.00;101972.88;5190709;28;20054;-70
2023/06/06 05:46:21;;;;;;;14.30;8.35;;;;;;;13.99;100.00;101974.28;5189791;28;20030;-69
2023/06/06 05:48:53;;;;;;;11.88;8.23;;;;;;;14.07;100.00;101977.13;5183789;28;20579;-70
2023/06/06 05:51:26;;;;;;;14.43;8.77;;;;;;;14.03;100.00;101971.28;5185628;28;20555;-69
2023/06/06 05:53:57;;;;;;;;;;;;;;;14.73;100.00;101980.44;5190278;28;20144;-69
2023/06/06 05:56:28;;;;;;;9.73;7.73;;;;;;;14.22;100.00;101972.41;5170586;28;19921;-69
2023/06/06 05:58:59;;;;;;;12.32;9.05;;;;;;;14.20;100.00;101975.16;5189738;28;20465;-69
2023/06/06 06:01:31;;;;;;;12.52;7.97;;;;;;;14.32;100.00;101974.16;5172831;28;20041;-70
2023/06/06 06:04:02;;;;;;;12.00;8.57;;;;;;;14.42;100.00;101970.75;5189117;28;20080;-71
2023/06/06 06:06:34;;;;;;;12.32;8.45;;;;;;;14.51;100.00;101970.88;5187158;28;20125;-70
2023/06/06 06:09:06;;;;;;;12.00;8.55;;;;;;;14.60;100.00;101961.34;5171970;28;20412;-70
2023/06/06 06:11:37;;;;;;;10.57;8.48;;;;;;;14.71;100.00;101969.19;5171073;28;20583;-70
2023/06/06 06:14:08;;;;;;;12.20;7.93;;;;;;;14.72;100.00;101962.94;5170903;28;20022;-71
2023/06/06 06:16:39;;;;;;;17.08;8.30;;;;;;;14.83;100.00;101968.16;5190193;28;20032;-70
2023/06/06 06:19:11;;;;;;;12.10;8.27;;;;;;;14.91;100.00;101974.56;5189357;28;20073;-70
2023/06/06 06:21:42;;;;;;;10.13;8.02;;;;;;;14.94;100.00;101972.50;5187030;28;20121;-71
2023/06/06 06:24:13;;;;;;;11.23;7.78;;;;;;;15.13;100.00;101970.94;5187628;28;20042;-70
2023/06/06 06:26:45;;;;;;;11.23;7.95;;;;;;;15.18;100.00;101982.75;5187473;28;20049;-71
2023/06/06 06:29:16;;;;;;;10.10;7.85;;;;;;;15.31;100.00;101977.28;5189029;28;20022;-71
2023/06/06 06:31:47;;;;;;;10.05;8.35;;;;;;;15.43;99.28;101980.66;5185376;28;20022;-70
2023/06/06 06:34:19;;;;;;;10.93;7.65;;;;;;;15.47;98.55;101980.22;5190441;28;20505;-71
2023/06/06 06:36:50;;;;;;;12.07;7.88;;;;;;;15.52;97.03;101975.38;5188748;28;20522;-71
2023/06/06 06:39:21;;;;;;;9.52;8.02;;;;;;;15.65;95.52;101975.19;5185872;28;20033;-70
2023/06/06 06:41:52;;;;;;;11.02;7.95;;;;;;;15.79;95.25;101980.06;5188680;28;20038;-70
2023/06/06 06:44:24;;;;;;;9.55;7.97;;;;;;;15.91;94.23;101980.78;5188914;28;20032;-71
2023/06/06 06:46:55;;;;;;;10.60;8.27;;;;;;;16.06;93.98;101973.28;5188741;28;20026;-70
2023/06/06 06:49:26;;;;;;;9.90;8.23;;;;;;;16.08;92.88;101981.06;5188358;28;20026;-71
2023/06/06 06:52:00;;;;;;;11.65;8.20;;;;;;;16.10;91.02;101982.63;5188123;28;20026;-71
2023/06/06 06:54:35;;;;;;;11.18;8.65;;;;;;;16.34;89.99;101989.28;5187815;28;20089;-70
2023/06/06 06:57:06;;;;;;;10.50;8.48;;;;;;;16.40;88.87;101988.72;5170683;28;20057;-71
2023/06/06 06:59:38;;;;;;;11.85;8.35;;;;;;;16.56;87.43;101991.66;5185685;28;20133;-70
2023/06/06 07:02:09;;;;;;;10.77;8.35;;;;;;;16.65;86.87;101985.50;5189417;28;20371;-71
2023/06/06 07:04:41;;;;;;;10.13;7.90;;;;;;;16.67;86.07;101985.38;5189336;28;20034;-70
2023/06/06 07:07:15;;;;;;;10.77;8.23;;;;;;;16.85;84.91;101996.91;5188474;28;20021;-71
2023/06/06 07:09:46;;;;;;;11.13;8.02;;;;;;;16.85;84.61;101988.13;5187012;28;20033;-70
2023/06/06 07:12:19;;;;;;;14.70;7.70;;;;;;;16.96;83.67;101985.31;5184400;28;20034;-70
2023/06/06 07:14:50;;;;;;;;;;;;;;;17.75;82.75;101983.03;5186563;28;20404;-70
2023/06/06 07:17:25;;;;;;;10.43;7.87;;;;;;;17.29;82.50;101986.59;5189044;28;19925;-70
2023/06/06 07:19:56;;;;;;;9.07;7.45;;;;;;;17.42;83.10;101983.59;5190169;28;20439;-70
2023/06/06 07:22:28;;;;;;;9.05;7.35;;;;;;;17.61;82.13;101991.44;5190668;28;20030;-71
2023/06/06 07:24:59;;;;;;;9.20;7.88;;;;;;;17.66;79.61;101985.72;5193062;28;20531;-71
2023/06/06 07:27:36;;;;;;;11.02;8.50;;;;;;;17.78;78.68;101989.84;5189719;28;20384;-70
2023/06/06 07:30:12;;;;;;;10.88;8.25;;;;;;;17.82;77.45;101987.75;5190063;28;20109;-70
2023/06/06 07:32:46;;;;;;;11.20;8.02;;;;;;;17.90;76.44;101987.81;5192828;28;20497;-70
2023/06/06 07:35:19;;;;;;;10.00;7.70;;;;;;;17.91;74.65;101987.66;5191766;28;20022;-70
2023/06/06 07:37:50;;;;;;;;;;;;;;;18.84;74.97;101985.47;5193509;28;20587;-70
2023/06/06 07:40:22;;;;;;;10.87;7.57;;;;;;;18.37;72.88;101976.97;5192620;28;20009;-71
2023/06/06 07:42:54;;;;;;;13.23;7.90;;;;;;;18.56;71.92;101973.28;5174284;28;20018;-71
2023/06/06 07:45:26;;;;;;;13.90;7.63;;;;;;;18.66;73.35;101969.56;5188410;28;20061;-71
2023/06/06 07:47:58;;;;;;;9.20;7.75;;;;;;;18.65;70.07;101967.91;5191809;28;20026;-71
2023/06/06 07:50:29;;;;;;;11.37;7.40;;;;;;;18.73;70.14;101974.28;5171546;28;20492;-71
2023/06/06 07:53:01;;;;;;;10.00;7.53;;;;;;;18.83;70.07;101972.38;5174393;28;20316;-70
2023/06/06 07:55:32;;;;;;;10.02;7.28;;;;;;;19.02;69.38;101969.50;5193090;28;20045;-71
2023/06/06 07:58:10;;;;;;;12.90;7.90;;;;;;;19.12;68.78;101962.22;5173667;28;20317;-71
2023/06/06 08:00:44;;;;;;;9.82;8.00;;;;;;;19.17;68.11;101967.06;5191414;28;20030;-71
2023/06/06 08:03:15;;;;;;;11.57;7.65;;;;;;;19.20;67.59;101970.22;5191928;28;20026;-71
2023/06/06 08:05:47;;;;;;;9.38;7.63;;;;;;;19.37;65.65;101960.50;5192491;28;20037;-71
2023/06/06 08:08:18;;;;;;;8.32;6.85;;;;;;;19.49;64.64;101960.22;5190645;28;20026;-70
2023/06/06 08:10:49;;;;;;;11.07;7.35;;;;;;;19.58;63.64;101960.06;5191106;28;20493;-71
2023/06/06 08:13:21;;;;;;;12.00;8.43;;;;;;;19.86;62.56;101943.88;5192982;28;20040;-71
2023/06/06 08:15:52;;;;;;;11.18;7.75;;;;;;;19.89;63.47;101951.53;5188384;28;20069;-71
2023/06/06 08:18:23;;;;;;;9.20;7.37;;;;;;;19.99;61.65;101964.66;5189897;28;20034;-71
2023/06/06 08:20:54;;;;;;;10.77;7.82;;;;;;;20.11;63.48;101961.50;5191436;28;20454;-70
2023/06/06 08:23:26;;;;;;;11.43;7.57;;;;;;;20.29;61.66;101957.84;5190513;28;20152;-71
2023/06/06 08:25:57;;;;;;;10.07;7.73;;;;;;;20.36;60.65;101967.66;5191606;28;20483;-71
2023/06/06 08:28:29;;;;;;;11.23;7.67;;;;;;;20.52;60.92;101969.50;5192296;28;20034;-71
2023/06/06 08:31:02;;;;;;;12.13;7.53;;;;;;;20.53;59.99;101962.34;5189733;28;20061;-71
2023/06/06 08:33:33;;;;;;;10.75;7.55;;;;;;;20.62;58.73;101959.53;5187072;28;20042;-71
2023/06/06 08:36:06;;;;;;;12.97;8.17;;;;;;;20.63;59.94;101963.84;5191386;28;20026;-71
2023/06/06 08:38:38;;;;;;;9.13;7.55;;;;;;;20.73;58.96;101961.00;5192127;28;20503;-70
2023/06/06 08:41:11;;;;;;;13.10;7.17;;;;;;;20.80;60.22;101955.84;5190883;28;20023;-71
2023/06/06 08:43:46;;;;;;;8.57;6.80;;;;;;;21.08;59.07;101958.91;5191227;28;20281;-71
2023/06/06 08:46:17;;;;;;;9.80;7.53;;;;;;;20.82;57.66;101959.97;5191865;28;20069;-71
2023/06/06 08:48:50;;;;;;;9.07;7.37;;;;;;;20.97;56.94;101954.78;5172350;28;20535;-71
2023/06/06 08:51:24;;;;;;;11.38;8.05;;;;;;;21.16;57.53;101963.38;5184460;28;20045;-71
2023/06/06 08:54:01;;;;;;;9.38;7.32;;;;;;;21.28;58.10;101959.31;5189694;28;20403;-71
2023/06/06 08:56:34;;;;;;;10.60;7.30;;;;;;;21.28;57.08;101953.97;5190509;28;20022;-71
2023/06/06 08:59:05;;;;;;;11.50;7.55;;;;;;;21.38;57.21;101954.66;5190720;28;20045;-71
2023/06/06 09:01:40;;;;;;;9.13;6.93;;;;;;;21.48;56.54;101960.59;5188144;28;20034;-71
2023/06/06 09:04:15;;;;;;;8.45;7.10;;;;;;;21.57;56.78;101937.38;5189181;28;20472;-71
2023/06/06 09:06:46;;;;;;;12.25;7.30;;;;;;;21.74;54.57;101956.75;5187431;28;20563;-71
2023/06/06 09:09:19;;;;;;;9.53;7.13;;;;;;;21.83;54.70;101945.88;5187841;28;20102;-71
2023/06/06 09:11:50;;;;;;;13.05;7.50;;;;;;;22.02;53.85;101951.75;5190712;28;20030;-71
2023/06/06 09:14:22;;;;;;;10.47;7.00;;;;;;;21.98;53.43;101953.13;5190378;28;20025;-71
2023/06/06 09:16:53;;;;;;;13.83;6.93;;;;;;;22.19;53.40;101949.78;5190227;28;20022;-71
2023/06/06 09:19:25;;;;;;;11.93;7.30;;;;;;;22.28;52.54;101960.25;5189162;28;20018;-71
2023/06/06 09:22:05;;;;;;;11.13;7.63;;;;;;;22.56;52.76;101949.78;5187380;28;20084;-71
2023/06/06 09:24:44;;;;;;;11.48;7.13;;;;;;;22.61;52.17;101941.22;5187626;28;20570;-71
2023/06/06 09:27:29;;;;;;;12.23;6.97;;;;;;;22.92;52.71;101948.25;5188228;28;20079;-71
2023/06/06 09:30:00;;;;;;;9.18;6.53;;;;;;;22.77;51.22;101946.41;5190634;28;20014;-71
2023/06/06 09:32:32;;;;;;;8.30;6.90;;;;;;;22.90;49.62;101945.75;5186959;28;20022;-71
2023/06/06 09:35:05;;;;;;;8.30;6.70;;;;;;;23.11;49.61;101941.53;5184798;28;20038;-72
2023/06/06 09:37:38;;;;;;;11.05;7.13;;;;;;;23.18;49.75;101943.25;5188663;28;20092;-71
2023/06/06 09:40:14;;;;;;;9.18;7.15;;;;;;;23.23;48.91;101935.53;5172450;28;20476;-72
2023/06/06 09:42:47;;;;;;;10.90;6.93;;;;;;;23.25;49.20;101944.16;5190007;28;20032;-71
2023/06/06 09:45:19;;;;;;;8.93;6.72;;;;;;;23.48;49.79;101937.84;5189982;28;20030;-72
2023/06/06 09:47:50;;;;;;;9.93;6.70;;;;;;;23.77;48.46;101932.44;5188977;28;20042;-71
2023/06/06 09:50:22;;;;;;;8.07;6.33;;;;;;;23.85;48.29;101938.69;5189044;28;20085;-71
2023/06/06 09:52:53;;;;;;;9.30;6.77;;;;;;;23.74;47.13;101938.16;5189085;28;20028;-72
2023/06/06 09:55:25;;;;;;;8.97;6.73;;;;;;;24.03;47.44;101934.53;5156015;28;20466;-71
2023/06/06 09:57:59;;;;;;;8.33;6.47;;;;;;;24.17;47.68;101930.13;5189788;28;20025;-71
2023/06/06 10:00:34;;;;;;;9.85;7.40;;;;;;;24.09;47.09;101924.06;5188758;28;20468;-71
2023/06/06 10:03:06;;;;;;;8.82;6.70;;;;;;;24.12;46.36;101926.38;5171643;28;20042;-71
2023/06/06 10:05:38;;;;;;;9.85;7.18;;;;;;;24.42;46.19;101924.38;5188567;28;20132;-71
2023/06/06 10:08:10;;;;;;;7.35;6.15;;;;;;;24.54;45.90;101920.09;5188961;28;20020;-72
2023/06/06 10:10:43;;;;;;;7.17;6.10;;;;;;;24.55;44.89;101921.78;5189858;28;20022;-71
2023/06/06 10:13:22;;;;;;;9.10;5.97;;;;;;;24.89;45.51;101920.94;5187262;28;20026;-71
2023/06/06 10:15:57;;;;;;;10.73;6.50;;;;;;;24.81;44.83;101922.94;5189403;28;20030;-71
2023/06/06 10:18:30;;;;;;;10.13;7.10;;;;;;;24.83;44.19;101919.06;5190471;28;20415;-71
2023/06/06 10:21:03;;;;;;;9.75;6.35;;;;;;;24.92;44.26;101920.53;5186879;28;20041;-72
2023/06/06 10:23:34;;;;;;;8.82;5.95;;;;;;;25.06;44.01;101916.06;5188933;28;20034;-71
2023/06/06 10:26:11;;;;;;;10.10;6.57;;;;;;;25.08;43.40;101915.84;5189691;28;20112;-71
2023/06/06 10:28:53;;;;;;;8.93;6.55;;;;;;;25.38;44.36;101916.41;5186174;28;20042;-71
2023/06/06 10:31:56;;;;;;;8.13;6.07;;;;;;;25.63;44.08;101917.50;5187821;28;20493;-72
2023/06/06 10:34:34;;;;;;;8.27;6.85;;;;;;;25.65;43.97;101920.81;5165019;28;20038;-71
2023/06/06 10:37:16;;;;;;;7.22;5.95;;;;;;;25.83;43.39;101917.53;5189916;28;20038;-71
2023/06/06 10:40:05;;;;;;;6.47;5.47;;;;;;;26.02;43.12;101909.72;5189528;28;20029;-72
2023/06/06 10:42:39;;;;;;;9.02;5.40;;;;;;;25.86;41.99;101917.13;5187753;28;20038;-70
2023/06/06 10:45:10;;;;;;;9.00;6.20;;;;;;;25.78;41.78;101914.66;5188142;28;20096;-72
2023/06/06 10:47:44;;;;;;;10.07;5.93;;;;;;;25.89;42.24;101910.53;5188858;28;20034;-72
2023/06/06 10:50:16;;;;;;;7.22;6.10;;;;;;;25.81;42.13;101916.13;5185412;28;20500;-72
2023/06/06 10:53:06;;;;;;;7.65;5.78;;;;;;;26.20;43.04;101912.59;5172721;28;20443;-71
2023/06/06 10:55:44;;;;;;;9.88;5.43;;;;;;;26.13;42.06;101903.72;5192490;28;20030;-71
2023/06/06 10:58:21;;;;;;;6.72;5.05;;;;;;;26.13;41.04;101899.16;5191363;28;20022;-71
2023/06/06 11:01:01;;;;;;;8.80;5.85;;;;;;;26.06;42.14;101906.41;5191035;28;20458;-71
2023/06/06 11:03:35;;;;;;;10.18;5.72;;;;;;;26.28;43.67;101906.19;5193292;28;20435;-71
2023/06/06 11:06:14;;;;;;;7.10;6.05;;;;;;;26.45;42.17;101899.34;5190643;28;20041;-72
2023/06/06 11:08:49;;;;;;;11.88;6.28;;;;;;;26.47;42.56;101891.91;5192848;28;20226;-71
2023/06/06 11:11:31;;;;;;;9.77;5.88;;;;;;;26.73;41.65;101895.59;5192661;28;20042;-71
2023/06/06 11:14:07;;;;;;;5.68;4.70;;;;;;;26.98;40.70;101896.53;5187474;28;20030;-71
2023/06/06 11:16:43;;;;;;;8.65;5.05;;;;;;;26.95;41.33;101888.06;5189809;28;20036;-72
2023/06/06 11:19:19;;;;;;;8.13;5.72;;;;;;;26.95;40.64;101893.44;5191958;28;20108;-71
2023/06/06 11:22:00;;;;;;;8.52;5.20;;;;;;;26.95;39.44;101888.06;5191578;28;20188;-71
2023/06/06 11:24:33;;;;;;;6.78;5.18;;;;;;;27.04;39.04;101878.69;5194146;28;20077;-71
2023/06/06 11:27:06;;;;;;;6.53;4.88;;;;;;;26.90;39.04;101883.31;5192308;28;20085;-71
2023/06/06 11:29:37;;;;;;;8.07;4.70;;;;;;;26.98;39.22;101883.06;5191063;28;20472;-72
2023/06/06 11:32:10;;;;;;;9.05;4.97;;;;;;;27.12;39.57;101875.78;5186062;28;20034;-71
2023/06/06 11:34:41;;;;;;;9.23;5.07;;;;;;;27.17;38.93;101890.25;5192051;28;20050;-71
2023/06/06 11:37:13;;;;;;;9.13;5.47;;;;;;;27.38;39.01;101880.19;5192558;28;20033;-71
2023/06/06 11:39:44;;;;;;;8.37;5.17;;;;;;;27.54;39.62;101874.31;5193621;28;20445;-72
2023/06/06 11:42:17;;;;;;;8.27;4.80;;;;;;;27.51;38.12;101869.34;5191017;28;20491;-72